createdAt,value
2023-02-21T00:00:52.222Z,6.67
2023-02-21T00:06:33.005Z,5.97
2023-02-21T00:12:14.287Z,7.17
2023-02-21T00:17:55.494Z,5.60
2023-02-21T00:23:36.128Z,6.13
2023-02-21T00:29:17.098Z,4.87
2023-02-21T00:34:58.594Z,5.47
2023-02-21T00:40:39.488Z,5.70
2023-02-21T00:46:21.739Z,4.43
2023-02-21T00:52:02.969Z,3.53
2023-02-21T00:57:44.145Z,5.63
2023-02-21T01:03:25.802Z,4.57
2023-02-21T01:09:06.847Z,6.30
2023-02-21T01:14:48.112Z,5.40
2023-02-21T01:20:29.188Z,5.97
2023-02-21T01:26:10.509Z,6.27
2023-02-21T01:31:51.736Z,6.17
2023-02-21T01:37:32.812Z,7.83
2023-02-21T01:43:13.560Z,9.30
2023-02-21T01:48:55.351Z,8.90
2023-02-21T01:54:39.323Z,8.47
2023-02-21T02:00:24.401Z,9.43
2023-02-21T02:06:11.900Z,9.60
2023-02-21T02:12:01.689Z,9.50
2023-02-21T02:17:36.047Z,9.50
2023-02-21T02:23:23.177Z,10.40
2023-02-21T02:28:59.726Z,9.03
2023-02-21T02:35:00.481Z,10.60
2023-02-21T02:40:36.777Z,10.20
2023-02-21T02:46:09.676Z,9.63
2023-02-21T02:51:34.291Z,11.23
2023-02-21T02:57:02.876Z,9.07
2023-02-21T03:02:52.991Z,12.60
2023-02-21T03:08:33.578Z,14.67
2023-02-21T03:14:08.824Z,14.97
2023-02-21T03:19:35.844Z,14.90
2023-02-21T03:25:01.994Z,13.27
2023-02-21T03:30:24.994Z,12.20
2023-02-21T03:35:49.008Z,14.20
2023-02-21T03:41:13.033Z,13.70
2023-02-21T03:46:35.677Z,11.33
2023-02-21T03:51:58.040Z,12.20
2023-02-21T03:57:20.590Z,12.43
2023-02-21T04:02:45.216Z,9.60
2023-02-21T04:08:18.553Z,13.90
2023-02-21T04:13:41.100Z,10.73
2023-02-21T04:19:03.855Z,10.70
2023-02-21T04:24:26.665Z,12.07
2023-02-21T04:29:49.436Z,9.30
2023-02-21T04:35:12.705Z,9.30
2023-02-21T04:40:35.484Z,10.97
2023-02-21T04:45:58.069Z,10.73
2023-02-21T04:51:23.307Z,12.50
2023-02-21T04:56:46.053Z,9.93
2023-02-21T05:02:09.585Z,14.10
2023-02-21T05:07:32.017Z,11.00
2023-02-21T05:12:54.310Z,7.83
2023-02-21T05:18:23.404Z,13.30
2023-02-21T05:23:56.244Z,9.57
2023-02-21T05:29:19.186Z,9.17
2023-02-21T05:34:44.758Z,8.80
2023-02-21T05:40:08.064Z,6.47
2023-02-21T05:45:30.349Z,6.90
2023-02-21T05:50:52.835Z,8.20
2023-02-21T05:56:16.562Z,8.10
2023-02-21T06:01:39.471Z,9.73
2023-02-21T06:07:01.755Z,8.37
2023-02-21T06:12:24.336Z,8.90
2023-02-21T06:17:47.042Z,10.13
2023-02-21T06:23:09.391Z,7.40
2023-02-21T06:28:32.388Z,7.20
2023-02-21T06:33:54.619Z,5.77
2023-02-21T06:39:16.832Z,8.00
2023-02-21T06:44:39.131Z,6.47
2023-02-21T06:50:01.784Z,6.27
2023-02-21T06:55:25.736Z,5.50
2023-02-21T07:00:48.336Z,7.17
2023-02-21T07:06:11.104Z,4.77
2023-02-21T07:11:35.328Z,3.90
2023-02-21T07:16:57.435Z,3.37
2023-02-21T07:22:26.158Z,1.73
2023-02-21T07:27:50.172Z,3.60
2023-02-21T07:33:12.683Z,1.70
2023-02-21T07:38:34.945Z,2.50
2023-02-21T07:43:57.421Z,1.10
2023-02-21T07:49:19.621Z,0.73
2023-02-21T07:54:42.251Z,1.40
2023-02-21T08:00:05.881Z,1.33
2023-02-21T08:05:35.064Z,1.17
2023-02-21T08:10:57.252Z,2.90
2023-02-21T08:16:19.559Z,2.40
2023-02-21T08:21:49.627Z,1.23
2023-02-21T08:27:12.231Z,0.97
2023-02-21T08:32:35.453Z,1.07
2023-02-21T08:38:03.225Z,2.63
2023-02-21T08:43:26.050Z,2.73
2023-02-21T08:48:48.549Z,1.43
2023-02-21T08:54:11.153Z,1.53
2023-02-21T08:59:35.032Z,1.10
2023-02-21T09:04:57.437Z,0.97
2023-02-21T09:10:19.886Z,4.93
2023-02-21T09:15:42.580Z,3.70
2023-02-21T09:21:07.305Z,1.83
2023-02-21T09:26:32.165Z,6.70
2023-02-21T09:31:54.481Z,3.13
2023-02-21T09:37:17.196Z,1.60
2023-02-21T09:42:41.450Z,4.03
2023-02-21T09:48:20.046Z,1.97
2023-02-21T09:53:45.378Z,4.83
2023-02-21T09:59:14.456Z,5.93
2023-02-21T10:04:59.990Z,4.17
2023-02-21T10:10:33.399Z,4.43
2023-02-21T10:16:36.014Z,5.40
2023-02-21T10:22:00.927Z,4.27
2023-02-21T10:27:26.902Z,9.60
2023-02-21T10:32:49.139Z,3.70
2023-02-21T10:38:16.106Z,5.70
2023-02-21T10:43:46.651Z,8.30
2023-02-21T10:49:29.308Z,6.83
2023-02-21T10:55:19.967Z,10.00
2023-02-21T11:00:49.433Z,12.93
2023-02-21T11:06:23.964Z,3.73
2023-02-21T11:11:46.549Z,10.10
2023-02-21T11:17:16.218Z,11.27
2023-02-21T11:22:43.938Z,12.53
2023-02-21T11:28:26.745Z,4.87
2023-02-21T11:34:05.611Z,13.00
2023-02-21T11:39:33.152Z,8.10
2023-02-21T11:45:22.122Z,8.93
2023-02-21T11:50:51.980Z,14.83
2023-02-21T11:56:38.650Z,6.93
2023-02-21T12:02:15.873Z,11.67
2023-02-21T12:08:00.323Z,10.53
2023-02-21T12:13:48.081Z,10.40
2023-02-21T12:19:38.566Z,10.40
2023-02-21T12:25:22.609Z,8.13
2023-02-21T12:31:10.124Z,6.27
2023-02-21T12:37:00.552Z,11.33
2023-02-21T12:42:55.624Z,15.20
2023-02-21T12:48:36.983Z,9.73
2023-02-21T12:54:36.173Z,12.90
2023-02-21T13:00:26.906Z,11.53
2023-02-21T13:05:58.106Z,13.30
2023-02-21T13:11:33.084Z,13.33
2023-02-21T13:16:56.089Z,12.73
2023-02-21T13:23:15.499Z,13.03
2023-02-21T13:28:58.871Z,12.13
2023-02-21T13:34:25.643Z,7.93
2023-02-21T13:40:01.613Z,12.37
2023-02-21T13:45:26.215Z,10.87
2023-02-21T13:50:51.243Z,7.37
2023-02-21T13:56:16.085Z,17.70
2023-02-21T14:01:38.536Z,8.80
2023-02-21T14:07:02.416Z,16.67
2023-02-21T14:12:27.868Z,6.83
2023-02-21T14:17:55.083Z,9.83
2023-02-21T14:23:20.369Z,10.30
2023-02-21T14:28:58.014Z,19.23
2023-02-21T14:34:26.560Z,6.13
2023-02-21T14:39:51.626Z,15.20
2023-02-21T14:45:22.749Z,9.47
2023-02-21T14:51:14.218Z,25.77
2023-02-21T14:57:00.478Z,12.53
2023-02-21T15:02:57.534Z,17.23
2023-02-21T15:08:26.134Z,15.30
2023-02-21T15:13:48.476Z,10.80
2023-02-21T15:19:22.236Z,17.70
2023-02-21T15:25:09.288Z,13.23
2023-02-21T15:30:40.148Z,5.53
2023-02-21T15:36:17.665Z,13.73
2023-02-21T15:41:47.196Z,12.07
2023-02-21T15:47:19.516Z,10.53
2023-02-21T15:52:51.639Z,13.57
2023-02-21T15:58:20.986Z,12.17
2023-02-21T16:03:44.792Z,9.90
2023-02-21T16:09:18.258Z,17.10
2023-02-21T16:14:46.302Z,10.43
2023-02-21T16:20:19.787Z,14.57
2023-02-21T16:26:00.625Z,12.70
2023-02-21T16:31:32.026Z,12.33
2023-02-21T16:37:02.220Z,9.53
2023-02-21T16:42:25.344Z,14.23
2023-02-21T16:47:50.112Z,10.00
2023-02-21T16:53:13.309Z,15.07
2023-02-21T16:58:42.418Z,15.30
2023-02-21T17:04:06.986Z,11.80
2023-02-21T17:09:33.600Z,18.13
2023-02-21T17:14:55.817Z,17.70
2023-02-21T17:20:19.059Z,13.17
2023-02-21T17:25:41.986Z,16.83
2023-02-21T17:31:04.277Z,13.93
2023-02-21T17:36:28.728Z,15.77
2023-02-21T17:41:52.569Z,18.73
2023-02-21T17:47:15.116Z,19.73
2023-02-21T17:52:37.535Z,25.63
2023-02-21T17:57:59.944Z,19.90
2023-02-21T18:03:23.264Z,20.87
2023-02-21T18:08:47.243Z,14.23
2023-02-21T18:14:09.392Z,28.37
2023-02-21T18:19:31.537Z,11.63
2023-02-21T18:24:54.163Z,20.43
2023-02-21T18:30:18.267Z,19.07
2023-02-21T18:35:40.347Z,20.77
2023-02-21T18:41:02.785Z,17.27
2023-02-21T18:46:25.356Z,20.37
2023-02-21T18:51:47.965Z,19.50
2023-02-21T18:57:10.451Z,20.07
2023-02-21T19:02:34.559Z,22.27
2023-02-21T19:07:56.809Z,18.53
2023-02-21T19:13:20.080Z,23.57
2023-02-21T19:18:42.817Z,25.67
2023-02-21T19:24:05.095Z,24.33
2023-02-21T19:29:27.472Z,20.27
2023-02-21T19:34:50.370Z,23.10
2023-02-21T19:40:13.179Z,29.73
2023-02-21T19:45:35.820Z,24.03
2023-02-21T19:51:00.501Z,24.23
2023-02-21T19:56:23.051Z,23.53
2023-02-21T20:01:47.258Z,18.30
2023-02-21T20:07:11.600Z,19.97
2023-02-21T20:12:33.872Z,22.63
2023-02-21T20:17:56.376Z,18.77
2023-02-21T20:23:18.964Z,12.87
2023-02-21T20:28:41.476Z,22.30
2023-02-21T20:34:06.984Z,27.67
2023-02-21T20:39:31.660Z,14.97
2023-02-21T20:44:55.386Z,19.77
2023-02-21T20:50:20.544Z,14.40
2023-02-21T20:55:43.142Z,35.30
2023-02-21T21:01:05.798Z,36.57
2023-02-21T21:06:28.437Z,35.90
2023-02-21T21:11:53.148Z,27.37
2023-02-21T21:17:19.540Z,22.50
2023-02-21T21:22:42.494Z,14.13
2023-02-21T21:28:05.680Z,15.93
2023-02-21T21:33:28.332Z,15.93
2023-02-21T21:38:51.010Z,17.30
2023-02-21T21:44:14.004Z,17.47
2023-02-21T21:49:37.289Z,16.57
2023-02-21T21:54:59.755Z,19.53
2023-02-21T22:00:25.704Z,13.30
2023-02-21T22:05:50.675Z,10.63
2023-02-21T22:11:13.235Z,14.87
2023-02-21T22:16:40.448Z,20.03
2023-02-21T22:22:08.274Z,14.27
2023-02-21T22:27:31.027Z,13.60
2023-02-21T22:32:53.116Z,17.27
2023-02-21T22:38:17.429Z,26.00
2023-02-21T22:43:41.185Z,11.70
2023-02-21T22:49:03.671Z,16.30
2023-02-21T22:54:26.836Z,15.07
2023-02-21T22:59:51.119Z,16.13
2023-02-21T23:05:19.309Z,10.20
2023-02-21T23:10:42.432Z,13.27
2023-02-21T23:16:04.755Z,13.03
2023-02-21T23:21:27.307Z,8.50
2023-02-21T23:26:50.899Z,10.83
2023-02-21T23:32:13.175Z,17.27
2023-02-21T23:37:42.998Z,18.50
2023-02-21T23:43:05.911Z,16.10
2023-02-21T23:48:29.687Z,18.23
2023-02-21T23:53:51.990Z,13.83
2023-02-21T23:59:15.496Z,18.33
